Time;durP1;ratioP1;P1;durP2;ratioP2;P2;SDS_P1;SDS_P2;PMS_P1;PMS_P2;Temp;Humidity;BMP_temperature;BMP_pressure;BME280_temperature;BME280_humidity;BME280_pressure;Samples;Min_cycle;Max_cycle;Signal;HPM_P1;HPM_P2
2022/07/23 00:02:22;;;;;;;6.47;4.60;;;;;;;;;;5134196;27;20046;-82
2022/07/23 00:04:48;;;;;;;6.20;4.47;;;;;;;;;;5135085;27;20043;-87
2022/07/23 00:07:14;;;;;;;6.88;4.20;;;;;;;;;;5117865;27;20043;-90
2022/07/23 00:09:40;;;;;;;5.00;4.30;;;;;;;;;;5118378;27;20050;-92
2022/07/23 00:12:06;;;;;;;11.35;5.07;;;;;;;;;;5118432;27;20402;-93
2022/07/23 00:14:32;;;;;;;5.60;3.83;;;;;;;;;;5127639;27;20042;-87
2022/07/23 00:16:58;;;;;;;5.88;4.35;;;;;;;;;;5137094;27;20046;-83
2022/07/23 00:19:24;;;;;;;6.20;4.00;;;;;;;;;;5119270;27;20039;-85
2022/07/23 00:21:50;;;;;;;4.97;4.10;;;;;;;;;;5134872;27;20133;-89
2022/07/23 00:24:16;;;;;;;5.90;4.53;;;;;;;;;;5136314;27;20051;-82
2022/07/23 00:26:42;;;;;;;7.00;4.15;;;;;;;;;;5135722;27;20399;-91
2022/07/23 00:29:08;;;;;;;6.03;4.07;;;;;;;;;;5117041;27;20494;-84
2022/07/23 00:31:34;;;;;;;6.60;5.00;;;;;;;;;;5117093;27;20062;-83
2022/07/23 00:34:03;;;;;;;5.70;4.05;;;;;;;;;;5117806;27;20056;-89
2022/07/23 00:36:31;;;;;;;5.93;3.97;;;;;;;;;;5117654;27;20472;-86
2022/07/23 00:38:57;;;;;;;11.30;5.07;;;;;;;;;;5116847;27;20099;-92
2022/07/23 00:41:23;;;;;;;8.27;3.88;;;;;;;;;;5134450;27;20130;-84
2022/07/23 00:43:49;;;;;;;6.20;3.63;;;;;;;;;;5116704;27;20035;-86
2022/07/23 00:46:22;;;;;;;6.25;4.95;;;14.80;99.90;;;;;;5117071;27;20095;-91
2022/07/23 00:48:48;;;;;;;8.27;4.03;;;;;;;;;;5116817;27;20097;-87
2022/07/23 00:51:17;;;;;;;5.97;4.68;;;14.70;99.90;;;;;;5134397;27;20042;-83
2022/07/23 00:53:44;;;;;;;8.30;4.45;;;;;;;;;;5117216;27;20148;-87
2022/07/23 00:56:11;;;;;;;5.13;4.20;;;;;;;;;;5117129;27;20436;-85
2022/07/23 00:58:38;;;;;;;5.43;4.40;;;;;;;;;;5115993;27;20047;-83
2022/07/23 01:01:04;;;;;;;8.98;4.53;;;;;;;;;;5132857;27;20043;-83
2022/07/23 01:03:30;;;;;;;9.05;5.00;;;;;;;;;;5116558;27;20376;-84
2022/07/23 01:05:57;;;;;;;11.98;5.18;;;14.80;99.90;;;;;;5133209;27;20096;-83
2022/07/23 01:08:23;;;;;;;12.75;5.75;;;;;;;;;;5132941;27;20043;-84
2022/07/23 01:10:49;;;;;;;9.13;4.95;;;;;;;;;;5133225;27;20071;-83
2022/07/23 01:13:15;;;;;;;7.18;4.75;;;;;;;;;;5115666;27;20078;-82
2022/07/23 01:15:41;;;;;;;5.03;4.47;;;;;;;;;;5115876;27;20035;-85
2022/07/23 01:18:08;;;;;;;9.02;4.80;;;;;;;;;;5115745;27;20050;-84
2022/07/23 01:20:34;;;;;;;6.10;5.00;;;;;;;;;;5115821;27;20125;-82
2022/07/23 01:23:00;;;;;;;12.35;5.10;;;;;;;;;;5116129;27;20138;-83
2022/07/23 01:25:26;;;;;;;8.98;4.50;;;;;;;;;;5115626;27;20062;-83
2022/07/23 01:27:53;;;;;;;7.32;5.40;;;14.50;99.90;;;;;;5115566;27;20419;-82
2022/07/23 01:30:19;;;;;;;7.07;4.80;;;;;;;;;;5115408;27;20118;-82
2022/07/23 01:32:45;;;;;;;8.18;5.90;;;;;;;;;;5115899;27;20039;-85
2022/07/23 01:35:11;;;;;;;14.27;5.20;;;;;;;;;;5132726;27;20035;-84
2022/07/23 01:37:37;;;;;;;9.23;5.10;;;;;;;;;;5115681;27;20035;-85
2022/07/23 01:40:04;;;;;;;6.35;5.38;;;;;;;;;;5132524;27;20051;-85
2022/07/23 01:42:30;;;;;;;9.05;5.00;;;;;;;;;;5132136;27;20503;-82
2022/07/23 01:44:56;;;;;;;5.97;4.38;;;;;;;;;;5115425;27;20039;-84
2022/07/23 01:47:22;;;;;;;6.20;4.85;;;;;;;;;;5114980;27;20039;-81
2022/07/23 01:49:48;;;;;;;7.80;4.72;;;;;;;;;;5133020;27;20133;-88
2022/07/23 01:52:14;;;;;;;8.75;5.22;;;;;;;;;;5132977;27;20155;-88
2022/07/23 01:54:40;;;;;;;7.43;5.25;;;;;;;;;;5132978;27;20055;-88
2022/07/23 01:57:07;;;;;;;6.60;4.90;;;14.10;99.90;;;;;;5132080;27;20038;-86
2022/07/23 01:59:33;;;;;;;9.02;5.25;;;;;;;;;;5133538;27;20043;-88
2022/07/23 02:01:59;;;;;;;8.70;4.95;;;;;;;;;;5132767;27;20487;-87
2022/07/23 02:04:26;;;;;;;9.05;5.88;;;;;;;;;;5133327;27;20566;-89
2022/07/23 02:06:52;;;;;;;9.95;5.88;;;;;;;;;;5133636;27;20118;-90
2022/07/23 02:09:19;;;;;;;5.68;5.07;;;;;;;;;;5133229;27;20038;-90
2022/07/23 02:11:45;;;;;;;10.40;5.78;;;;;;;;;;5133621;27;20039;-88
2022/07/23 02:14:11;;;;;;;7.25;5.05;;;;;;;;;;5132410;27;20062;-88
2022/07/23 02:16:37;;;;;;;7.70;5.43;;;;;;;;;;5131652;27;20513;-90
2022/07/23 02:19:03;;;;;;;9.93;5.88;;;14.00;99.90;;;;;;5132653;27;20047;-87
2022/07/23 02:21:29;;;;;;;7.00;5.15;;;;;;;;;;5133456;27;20050;-89
2022/07/23 02:23:55;;;;;;;7.30;6.10;;;;;;;;;;5132859;27;20039;-85
2022/07/23 02:26:22;;;;;;;9.15;5.22;;;;;;;;;;5131740;27;20460;-83
2022/07/23 02:28:48;;;;;;;10.52;6.95;;;;;;;;;;5132974;27;20082;-85
2022/07/23 02:31:14;;;;;;;10.13;5.85;;;;;;;;;;5114602;27;20073;-83
2022/07/23 02:33:40;;;;;;;6.95;4.97;;;;;;;;;;5131480;27;20119;-84
2022/07/23 02:36:06;;;;;;;6.70;5.03;;;;;;;;;;5132956;27;20433;-83
2022/07/23 02:38:32;;;;;;;7.32;4.95;;;;;;;;;;5132493;27;20074;-84
2022/07/23 02:40:58;;;;;;;7.25;4.45;;;;;;;;;;5131026;27;20491;-85
2022/07/23 02:43:24;;;;;;;7.80;4.88;;;;;;;;;;5131675;27;20050;-85
2022/07/23 02:45:50;;;;;;;6.68;4.80;;;;;;;;;;5114504;27;20039;-83
2022/07/23 02:48:16;;;;;;;11.02;5.00;;;;;;;;;;5130886;27;20483;-83
2022/07/23 02:50:42;;;;;;;6.22;4.72;;;;;;;;;;5114576;27;20181;-82
2022/07/23 02:53:08;;;;;;;7.20;5.25;;;;;;;;;;5131225;27;20043;-85
2022/07/23 02:55:34;;;;;;;10.13;4.97;;;14.10;99.90;;;;;;5130809;27;20112;-83
2022/07/23 02:58:00;;;;;;;7.53;4.88;;;;;;;;;;5114133;27;20093;-83
2022/07/23 03:00:26;;;;;;;8.23;4.80;;;;;;;;;;5130623;27;20084;-83
2022/07/23 03:02:52;;;;;;;7.65;4.95;;;;;;;;;;5113757;27;20491;-82
2022/07/23 03:05:18;;;;;;;7.57;5.00;;;;;;;;;;5113766;27;20539;-82
2022/07/23 03:07:44;;;;;;;6.32;4.93;;;;;;;;;;5114026;28;20039;-84
2022/07/23 03:10:10;;;;;;;6.05;5.03;;;;;;;;;;5131263;27;20039;-84
2022/07/23 03:12:36;;;;;;;9.88;6.40;;;;;;;;;;5113947;28;20039;-85
2022/07/23 03:15:02;;;;;;;8.00;5.32;;;;;;;;;;5114075;28;20039;-83
2022/07/23 03:17:28;;;;;;;6.07;5.10;;;;;;;;;;5114074;28;20039;-84
2022/07/23 03:19:54;;;;;;;13.68;4.95;;;;;;;;;;5113386;28;20050;-85
2022/07/23 03:22:20;;;;;;;10.75;6.07;;;;;;;;;;5117875;27;20043;-83
2022/07/23 03:24:55;;;;;;;8.75;4.80;;;;;;;;;;5118495;27;20509;-88
2022/07/23 03:27:26;;;;;;;8.90;5.45;;;14.10;99.90;;;;;;5118603;27;20085;-87
2022/07/23 03:29:53;;;;;;;12.82;5.35;;;;;;;;;;5118408;27;20042;-89
2022/07/23 03:32:19;;;;;;;5.80;4.88;;;;;;;;;;5110474;27;20050;-90
2022/07/23 03:34:45;;;;;;;5.65;4.72;;;;;;;;;;5135249;27;20119;-89
2022/07/23 03:37:11;;;;;;;7.38;4.63;;;;;;;;;;5117725;27;20043;-87
2022/07/23 03:39:37;;;;;;;10.52;4.82;;;;;;;;;;5117567;27;20047;-87
2022/07/23 03:42:03;;;;;;;5.88;5.10;;;;;;;;;;5135050;27;20051;-89
2022/07/23 03:44:29;;;;;;;13.10;4.68;;;;;;;;;;5118587;27;20046;-89
2022/07/23 03:46:55;;;;;;;11.32;5.00;;;;;;;;;;5118140;27;20126;-89
2022/07/23 03:49:21;;;;;;;7.65;5.30;;;;;;;;;;5117607;27;20042;-90
2022/07/23 03:51:47;;;;;;;6.63;4.50;;;;;;;;;;5135020;27;20060;-90
2022/07/23 03:54:13;;;;;;;6.47;4.57;;;;;;;;;;5135718;27;20035;-90
2022/07/23 03:56:39;;;;;;;5.20;3.95;;;;;;;;;;5135108;27;20055;-89
2022/07/23 03:59:05;;;;;;;9.80;4.43;;;;;;;;;;5117519;27;20150;-89
2022/07/23 04:01:32;;;;;;;6.32;4.50;;;;;;;;;;5135958;27;20043;-88
2022/07/23 04:03:58;;;;;;;6.38;4.05;;;;;;;;;;5134618;27;20039;-89
2022/07/23 04:06:24;;;;;;;10.60;4.68;;;;;;;;;;5117210;27;20565;-89
2022/07/23 04:08:50;;;;;;;6.28;5.47;;;;;;;;;;5134847;27;20074;-86
2022/07/23 04:11:16;;;;;;;6.65;4.35;;;;;;;;;;5135589;27;20402;-88
2022/07/23 04:13:42;;;;;;;11.68;5.32;;;;;;;;;;5117820;27;20500;-88
2022/07/23 04:16:08;;;;;;;4.80;3.97;;;;;;;;;;5117706;27;20491;-88
2022/07/23 04:18:34;;;;;;;5.53;4.75;;;;;;;;;;5117338;27;20206;-87
2022/07/23 04:21:00;;;;;;;11.00;4.50;;;;;;;;;;5117353;27;20082;-91
2022/07/23 04:23:26;;;;;;;8.75;4.03;;;;;;;;;;5117461;27;20035;-89
2022/07/23 04:25:52;;;;;;;9.68;4.68;;;;;;;;;;5117744;27;20039;-90
2022/07/23 04:28:18;;;;;;;6.50;3.78;;;;;;;;;;5117346;27;20039;-89
2022/07/23 04:30:45;;;;;;;11.20;4.00;;;;;;;;;;5117016;27;20156;-89
2022/07/23 04:33:11;;;;;;;4.95;4.40;;;;;;;;;;5134907;27;20125;-90
2022/07/23 04:35:37;;;;;;;5.38;4.13;;;;;;;;;;5133868;27;20043;-88
2022/07/23 04:38:03;;;;;;;10.80;4.88;;;;;;;;;;5117068;27;20130;-92
2022/07/23 04:40:30;;;;;;;7.22;4.90;;;;;;;;;;5116766;27;20435;-88
2022/07/23 04:42:56;;;;;;;6.53;4.30;;;14.30;99.90;;;;;;5116887;27;20126;-89
2022/07/23 04:45:23;;;;;;;6.90;4.97;;;;;;;;;;5117061;27;20035;-85
2022/07/23 04:47:49;;;;;;;8.43;4.40;;;;;;;;;;5116712;27;20043;-87
2022/07/23 04:50:19;;;;;;;6.60;3.90;;;;;;;;;;5116978;27;20035;-84
2022/07/23 04:52:45;;;;;;;8.18;3.70;;;;;;;;;;5116106;27;20441;-84
2022/07/23 04:55:11;;;;;;;7.95;4.05;;;;;;;;;;5125181;27;20063;-83
2022/07/23 04:57:37;;;;;;;7.35;4.13;;;;;;;;;;5133507;27;20073;-81
2022/07/23 05:00:04;;;;;;;6.68;4.60;;;14.30;99.90;;;;;;5133078;27;20055;-83
2022/07/23 05:02:30;;;;;;;7.20;3.92;;;;;;;;;;5116195;27;20039;-82
2022/07/23 05:04:56;;;;;;;4.95;4.30;;;;;;;;;;5132971;27;20087;-85
2022/07/23 05:07:22;;;;;;;6.90;4.32;;;;;;;;;;5132667;27;20121;-82
2022/07/23 05:09:48;;;;;;;7.13;3.65;;;;;;;;;;5116697;27;20035;-83
2022/07/23 05:12:14;;;;;;;6.90;4.57;;;;;;;;;;5133036;27;20093;-83
2022/07/23 05:14:40;;;;;;;9.82;4.47;;;;;;;;;;5116324;27;20433;-83
2022/07/23 05:17:07;;;;;;;8.25;4.03;;;;;;;;;;5133317;27;20065;-83
2022/07/23 05:19:34;;;;;;;5.55;3.75;;;;;;;;;;5124643;27;20047;-83
2022/07/23 05:22:00;;;;;;;5.57;3.47;;;;;;;;;;5115606;27;20092;-83
2022/07/23 05:24:26;;;;;;;6.72;3.72;;;;;;;;;;5115509;27;20099;-84
2022/07/23 05:26:52;;;;;;;7.32;5.00;;;;;;;;;;5115642;27;20039;-83
2022/07/23 05:29:18;;;;;;;4.00;3.40;;;;;;;;;;5115780;27;20104;-85
2022/07/23 05:31:45;;;;;;;6.03;3.92;;;;;;;;;;5132609;27;20139;-83
2022/07/23 05:34:11;;;;;;;6.38;3.22;;;;;;;;;;5115441;27;20042;-85
2022/07/23 05:36:37;;;;;;;3.92;3.10;;;;;;;;;;5132368;27;20077;-83
2022/07/23 05:39:03;;;;;;;4.00;3.00;;;14.50;99.90;;;;;;5132347;27;20067;-82
2022/07/23 05:41:29;;;;;;;6.97;2.85;;;;;;;;;;5115130;27;20503;-84
2022/07/23 05:43:55;;;;;;;5.97;3.22;;;;;;;;;;5114821;27;20055;-81
2022/07/23 05:46:22;;;;;;;8.50;3.75;;;;;;;;;;5132643;27;20487;-82
2022/07/23 05:48:49;;;;;;;10.35;3.13;;;;;;;;;;5114847;27;20045;-83
2022/07/23 05:51:22;;;;;;;3.33;3.03;;;14.80;99.90;;;;;;5115529;27;20475;-83
2022/07/23 05:53:49;;;;;;;6.68;3.20;;;;;;;;;;5115008;27;20066;-83
2022/07/23 05:56:15;;;;;;;9.00;4.38;;;14.80;99.90;;;;;;5132255;27;20409;-82
2022/07/23 05:58:41;;;;;;;5.07;2.67;;;;;;;;;;5114998;27;20471;-82
2022/07/23 06:01:07;;;;;;;7.00;3.10;;;;;;;;;;5114518;27;20122;-84
2022/07/23 06:03:33;;;;;;;8.75;3.30;;;;;;;;;;5114794;27;20130;-81
2022/07/23 06:05:59;;;;;;;3.13;2.55;;;;;;;;;;5132359;27;20043;-89
2022/07/23 06:08:25;;;;;;;6.38;2.65;;;;;;;;;;5132025;27;20031;-86
2022/07/23 06:10:51;;;;;;;7.10;2.50;;;;;;;;;;5114867;27;20500;-88
2022/07/23 06:13:20;;;;;;;3.22;2.40;;;15.20;99.90;;;;;;5114764;27;20131;-84
2022/07/23 06:15:46;;;;;;;8.93;2.53;;;;;;;;;;5132011;27;20332;-83
2022/07/23 06:18:13;;;;;;;4.20;2.42;;;;;;;;;;5132535;27;20047;-90
2022/07/23 06:20:39;;;;;;;6.32;2.45;;;;;;;;;;5115620;27;20043;-89
2022/07/23 06:23:05;;;;;;;2.13;1.92;;;;;;;;;;5115104;27;20046;-88
2022/07/23 06:25:31;;;;;;;5.35;2.20;;;;;;;;;;5114630;27;20043;-88
2022/07/23 06:27:57;;;;;;;3.88;1.83;;;;;;;;;;5132513;27;20071;-84
2022/07/23 06:30:23;;;;;;;4.82;2.60;;;;;;;;;;5115141;27;20144;-88
2022/07/23 06:32:49;;;;;;;3.30;1.95;;;;;;;;;;5114701;27;20039;-85
2022/07/23 06:35:16;;;;;;;1.48;1.35;;;;;;;;;;5114472;27;20043;-82
2022/07/23 06:37:41;;;;;;;1.75;1.50;;;15.80;99.90;;;;;;5114715;27;20039;-92
2022/07/23 06:40:08;;;;;;;2.53;1.60;;;;;;;;;;5114061;27;20107;-91
2022/07/23 06:42:36;;;;;;;1.73;1.30;;;;;;;;;;5114577;27;20560;-84
2022/07/23 06:45:03;;;;;;;1.58;1.15;;;16.30;99.90;;;;;;5131436;27;20526;-89
2022/07/23 06:47:29;;;;;;;1.40;1.30;;;;;;;;;;5114185;27;20047;-81
2022/07/23 06:49:55;;;;;;;2.50;1.23;;;;;;;;;;5131223;27;20437;-83
2022/07/23 06:52:21;;;;;;;1.55;1.20;;;;;;;;;;5131542;27;20051;-82
2022/07/23 06:54:47;;;;;;;4.00;1.48;;;;;;;;;;5130767;27;20039;-87
2022/07/23 06:57:13;;;;;;;1.45;1.20;;;;;;;;;;5131290;27;20097;-85
2022/07/23 06:59:40;;;;;;;2.00;1.20;;;;;;;;;;5130825;27;20499;-84
2022/07/23 07:02:06;;;;;;;1.58;0.90;;;;;;;;;;5114259;28;20039;-87
2022/07/23 07:04:32;;;;;;;1.33;1.10;;;;;;;;;;5113968;27;20043;-83
2022/07/23 07:06:58;;;;;;;3.60;1.00;;;;;;;;;;5113985;27;20035;-85
2022/07/23 07:09:24;;;;;;;2.58;0.98;;;;;;;;;;5114098;28;20043;-84
2022/07/23 07:11:51;;;;;;;1.52;0.90;;;;;;;;;;5130680;27;20043;-88
2022/07/23 07:14:17;;;;;;;2.05;0.80;;;;;;;;;;5113894;27;20035;-84
2022/07/23 07:16:43;;;;;;;1.38;1.25;;;;;;;;;;5114398;28;20503;-89
2022/07/23 07:19:09;;;;;;;1.27;0.93;;;;;;;;;;5130772;28;20506;-84
2022/07/23 07:21:38;;;;;;;2.00;0.80;;;;;;;;;;5113676;28;20054;-83
2022/07/23 07:24:04;;;;;;;0.60;0.60;;;;;;;;;;5113612;28;20039;-84
2022/07/23 07:26:30;;;;;;;1.15;0.70;;;;;;;;;;5113405;28;20385;-83
2022/07/23 07:28:59;;;;;;;4.35;1.50;;;;;;;;;;5114236;28;20080;-83
2022/07/23 07:31:25;;;;;;;1.45;0.60;;;17.20;99.90;;;;;;5113803;28;20058;-83
2022/07/23 07:33:51;;;;;;;1.00;0.90;;;;;;;;;;5114232;28;20126;-83
2022/07/23 07:36:18;;;;;;;0.80;0.80;;;;;;;;;;5130970;28;20057;-83
2022/07/23 07:38:44;;;;;;;1.77;1.23;;;;;;;;;;5132634;27;20051;-82
2022/07/23 07:41:10;;;;;;;1.65;0.93;;;;;;;;;;5132210;27;20047;-84
2022/07/23 07:43:37;;;;;;;0.65;0.65;;;;;;;;;;5115270;28;20134;-86
2022/07/23 07:46:03;;;;;;;1.02;0.90;;;17.20;99.90;;;;;;5116413;28;20056;-84
2022/07/23 07:48:29;;;;;;;0.70;0.70;;;;;;;;;;5132062;28;20528;-83
2022/07/23 07:50:58;;;;;;;0.80;0.80;;;;;;;;;;5133878;28;20498;-86
2022/07/23 07:53:25;;;;;;;1.25;0.90;;;;;;;;;;5115517;28;20176;-83
2022/07/23 07:55:51;;;;;;;0.70;0.70;;;;;;;;;;5115553;28;20060;-85
2022/07/23 07:58:17;;;;;;;0.85;0.85;;;;;;;;;;5115802;28;20050;-83
2022/07/23 08:00:43;;;;;;;0.98;0.98;;;;;;;;;;5106926;28;20417;-87
2022/07/23 08:03:09;;;;;;;0.80;0.80;;;;;;;;;;5120746;28;20078;-85
2022/07/23 08:05:35;;;;;;;2.15;0.88;;;;;;;;;;5111489;28;20068;-90
2022/07/23 08:08:01;;;;;;;2.58;0.88;;;;;;;;;;5132938;27;20095;-86
2022/07/23 08:10:28;;;;;;;1.67;0.75;;;17.50;99.90;;;;;;5133227;27;20083;-85
2022/07/23 08:12:56;;;;;;;1.63;0.90;;;17.40;99.90;;;;;;5112031;27;20039;-84
2022/07/23 08:15:23;;;;;;;1.50;1.00;;;17.80;99.90;;;;;;5129309;27;20043;-83
2022/07/23 08:17:49;;;;;;;1.02;0.70;;;;;;;;;;5138004;27;20035;-88
2022/07/23 08:20:16;;;;;;;2.78;1.20;;;;;;;;;;5111189;27;20132;-83
2022/07/23 08:22:42;;;;;;;1.73;0.80;;;;;;;;;;5126912;27;20039;-85
2022/07/23 08:25:09;;;;;;;2.08;0.95;;;;;;;;;;5126334;27;20035;-86
2022/07/23 08:27:35;;;;;;;0.77;0.73;;;;;;;;;;5127781;27;20074;-82
2022/07/23 08:30:01;;;;;;;3.70;0.70;;;;;;;;;;5114137;28;20050;-87
2022/07/23 08:32:27;;;;;;;3.22;1.25;;;17.60;99.90;;;;;;5118706;27;20043;-83
2022/07/23 08:34:53;;;;;;;1.42;1.33;;;;;;;;;;5135527;27;20061;-83
2022/07/23 08:37:19;;;;;;;1.35;1.00;;;;;;;;;;5118838;27;20046;-85
2022/07/23 08:39:45;;;;;;;3.05;1.20;;;;;;;;;;5119300;27;20126;-83
2022/07/23 08:42:13;;;;;;;2.78;0.90;;;17.90;99.90;;;;;;5135592;27;20402;-85
2022/07/23 08:44:44;;;;;;;0.77;0.77;;;17.90;99.90;;;;;;5135346;27;20047;-84
2022/07/23 08:47:10;;;;;;;0.80;0.80;;;;;;;;;;5118789;27;20428;-90
2022/07/23 08:49:36;;;;;;;2.35;0.95;;;;;;;;;;5118423;27;20114;-85
2022/07/23 08:52:02;;;;;;;5.57;2.08;;;;;;;;;;5118053;27;20103;-84
2022/07/23 08:54:28;;;;;;;2.20;1.00;;;;;;;;;;5117896;27;20043;-83
2022/07/23 08:56:55;;;;;;;2.53;0.93;;;;;;;;;;5118133;27;20406;-86
2022/07/23 08:59:21;;;;;;;1.48;1.02;;;;;;;;;;5117701;27;20046;-83
2022/07/23 09:01:47;;;;;;;1.63;0.80;;;;;;;;;;5117524;27;20043;-84
2022/07/23 09:04:13;;;;;;;3.90;0.88;;;;;;;;;;5135111;27;20039;-89
2022/07/23 09:06:41;;;;;;;2.78;1.70;;;;;;;;;;5135159;27;20126;-85
2022/07/23 09:09:20;;;;;;;1.58;1.20;;;18.00;99.90;;;;;;5117998;27;20042;-82
2022/07/23 09:11:47;;;;;;;1.38;0.82;;;17.70;99.90;;;;;;5117397;27;20043;-85
2022/07/23 09:14:13;;;;;;;3.40;1.20;;;;;;;;;;5135256;27;20039;-89
2022/07/23 09:16:39;;;;;;;2.92;0.82;;;;;;;;;;5135291;27;20052;-90
2022/07/23 09:19:06;;;;;;;5.18;1.40;;;17.90;99.90;;;;;;5117247;27;20102;-86
2022/07/23 09:21:35;;;;;;;1.20;0.80;;;18.00;99.90;;;;;;5116798;27;20039;-82
2022/07/23 09:24:06;;;;;;;2.42;0.95;;;17.90;99.90;;;;;;5133922;27;20043;-83
2022/07/23 09:26:43;;;;;;;1.60;0.90;;;18.20;99.90;;;;;;5117160;27;20050;-84
2022/07/23 09:29:10;;;;;;;4.95;1.02;;;18.20;99.90;;;;;;5116121;27;20126;-83
2022/07/23 09:31:45;;;;;;;1.90;0.95;;;18.10;99.90;;;;;;5116713;27;20043;-84
2022/07/23 09:34:19;;;;;;;1.30;1.05;;;18.10;99.90;;;;;;5116599;27;20511;-84
2022/07/23 09:36:45;;;;;;;2.42;1.08;;;;;;;;;;5133212;27;20039;-83
2022/07/23 09:39:17;;;;;;;22.83;2.03;;;18.10;99.90;;;;;;5134427;27;20046;-86
2022/07/23 09:41:46;;;;;;;4.38;0.90;;;18.00;99.90;;;;;;5133503;27;20035;-84
2022/07/23 09:44:17;;;;;;;2.55;1.02;;;18.00;99.90;;;;;;5116224;27;20043;-84
2022/07/23 09:46:48;;;;;;;2.05;0.77;;;18.10;99.90;;;;;;5108216;27;20085;-84
2022/07/23 09:49:22;;;;;;;0.90;0.82;;;18.20;99.90;;;;;;5133663;27;20047;-83
2022/07/23 09:51:57;;;;;;;2.22;0.70;;;18.30;99.90;;;;;;5114915;27;20039;-83
2022/07/23 09:54:33;;;;;;;1.55;1.00;;;18.30;99.90;;;;;;5115991;27;20147;-84
2022/07/23 09:57:06;;;;;;;3.33;0.98;;;18.10;99.90;;;;;;5126477;27;20114;-86
2022/07/23 09:59:36;;;;;;;1.90;1.10;;;18.20;99.90;;;;;;5133121;27;20035;-86
2022/07/23 10:02:04;;;;;;;3.38;1.17;;;;;;;;;;5115733;27;20039;-82
2022/07/23 10:04:31;;;;;;;3.13;1.05;;;18.10;99.90;;;;;;5127213;27;20092;-83
2022/07/23 10:07:00;;;;;;;5.55;0.98;;;18.20;99.90;;;;;;5114938;27;20495;-84
2022/07/23 10:09:36;;;;;;;1.77;1.13;;;18.50;99.90;;;;;;5131474;27;20547;-84
2022/07/23 10:14:58;;;;;;;1.38;1.27;;;18.80;99.90;;;;;;5131019;27;20043;-82
2022/07/23 10:17:24;;;;;;;1.13;1.02;;;;;;;;;;5132124;27;20051;-85
2022/07/23 10:19:50;;;;;;;1.42;0.90;;;;;;;;;;5131809;27;20039;-83
2022/07/23 10:22:23;;;;;;;3.90;1.30;;;18.50;99.90;;;;;;5115213;27;20483;-83
2022/07/23 10:25:08;;;;;;;2.03;1.23;;;18.50;99.90;;;;;;5131892;27;20088;-83
2022/07/23 10:27:36;;;;;;;4.95;1.00;;;18.70;99.90;;;;;;5115042;27;20062;-83
2022/07/23 10:30:22;;;;;;;1.52;1.40;;;18.50;99.90;;;;;;5131620;27;20514;-83
2022/07/23 10:32:56;;;;;;;3.85;1.33;;;18.60;99.90;;;;;;5114321;27;20042;-84
2022/07/23 10:35:43;;;;;;;3.40;1.20;;;18.40;99.90;;;;;;5114558;27;20047;-83
2022/07/23 10:38:53;;;;;;;3.05;1.30;;;18.80;99.90;;;;;;5115476;27;20039;-83
2022/07/23 10:41:36;;;;;;;3.80;1.17;;;18.60;99.90;;;;;;5032805;28;20052;-83
2022/07/23 10:44:14;;;;;;;2.95;1.17;;;18.60;99.90;;;;;;5033868;28;20045;-83
2022/07/23 10:47:23;;;;;;;4.15;1.05;;;18.60;99.90;;;;;;5033092;28;20044;-82
2022/07/23 10:49:49;;;;;;;2.47;1.40;;;;;;;;;;5017888;28;20505;-88
2022/07/23 10:52:28;;;;;;;2.05;1.02;;;18.40;99.90;;;;;;5033330;28;20508;-85
2022/07/23 10:54:54;;;;;;;1.85;1.20;;;;;;;;;;4997742;28;20044;-83
2022/07/23 10:57:23;;;;;;;2.13;1.38;;;18.70;99.90;;;;;;5015786;28;20044;-86
2022/07/23 11:00:12;;;;;;;2.28;1.10;;;18.50;99.90;;;;;;5017475;28;20126;-89
2022/07/23 11:02:39;;;;;;;1.65;1.25;;;18.60;99.90;;;;;;5016922;28;20037;-88
2022/07/23 11:05:13;;;;;;;1.85;1.50;;;18.60;99.90;;;;;;5017782;28;20041;-90
2022/07/23 11:08:03;;;;;;;1.27;1.17;;;18.90;99.90;;;;;;5012118;28;20064;-86
2022/07/23 11:10:36;;;;;;;3.42;1.65;;;18.70;99.90;;;;;;5017358;28;20417;-86
2022/07/23 11:13:24;;;;;;;3.53;1.30;;;18.80;99.90;;;;;;5034054;28;20048;-88
2022/07/23 11:16:04;;;;;;;1.77;1.42;;;18.60;99.90;;;;;;5018062;28;20047;-89
2022/07/23 11:18:39;;;;;;;6.35;1.45;;;18.90;99.90;;;;;;5098959;28;20073;-88
2022/07/23 11:21:23;;;;;;;3.50;1.38;;;19.00;99.90;;;;;;5115993;28;20046;-86
2022/07/23 11:24:06;;;;;;;4.03;1.50;;;18.90;99.90;;;;;;5115009;28;20491;-90
2022/07/23 11:26:39;;;;;;;4.05;1.30;;;18.90;99.90;;;;;;5115963;28;20043;-84
2022/07/23 11:29:36;;;;;;;4.13;1.17;;;19.10;99.90;;;;;;5116430;28;20072;-88
2022/07/23 11:32:05;;;;;;;5.00;1.10;;;19.30;99.90;;;;;;5126505;28;20447;-88
2022/07/23 11:34:38;;;;;;;2.25;1.60;;;19.00;99.90;;;;;;5132832;28;20043;-88
2022/07/23 11:37:26;;;;;;;4.45;1.50;;;19.30;99.90;;;;;;5127232;28;20039;-91
2022/07/23 11:39:56;;;;;;;1.73;1.38;;;19.30;99.90;;;;;;5115622;28;20051;-90
2022/07/23 11:42:23;;;;;;;2.47;1.05;;;;;;;;;;5135483;27;20087;-92
2022/07/23 11:44:50;;;;;;;3.92;1.42;;;19.30;99.90;;;;;;5138823;27;20051;-89
2022/07/23 11:47:22;;;;;;;1.75;1.52;;;19.50;99.90;;;;;;5138851;27;20035;-84
2022/07/23 11:49:59;;;;;;;1.75;1.30;;;19.40;99.90;;;;;;5119558;27;20058;-91
2022/07/23 11:52:26;;;;;;;3.40;1.30;;;19.50;99.90;;;;;;5119718;27;20047;-91
2022/07/23 11:54:58;;;;;;;2.60;1.20;;;19.60;99.90;;;;;;5119382;27;20145;-88
2022/07/23 11:57:27;;;;;;;2.33;1.30;;;19.70;99.90;;;;;;5130183;27;20047;-88
2022/07/23 11:59:56;;;;;;;1.27;1.17;;;19.70;99.90;;;;;;5119482;27;20549;-86
2022/07/23 12:02:23;;;;;;;2.58;1.60;;;20.00;99.90;;;;;;5118013;27;20043;-83
2022/07/23 12:04:51;;;;;;;3.63;1.20;;;20.00;99.90;;;;;;5117217;27;20040;-84
2022/07/23 12:07:30;;;;;;;2.53;1.30;;;20.20;99.90;;;;;;5134860;27;20047;-83
2022/07/23 12:09:59;;;;;;;3.17;1.40;;;20.30;99.90;;;;;;5135228;27;20055;-83
2022/07/23 12:12:25;;;;;;;1.70;1.20;;;;;;;;;;5118136;27;20054;-83
2022/07/23 12:14:53;;;;;;;2.65;1.48;;;20.50;99.90;;;;;;5135166;27;20043;-85
2022/07/23 12:17:20;;;;;;;2.30;1.25;;;20.40;99.90;;;;;;5134774;27;20088;-83
2022/07/23 12:19:47;;;;;;;4.63;1.33;;;20.50;99.90;;;;;;5135793;27;20058;-83
2022/07/23 12:22:14;;;;;;;3.15;1.10;;;;;;;;;;5135306;27;20039;-83
2022/07/23 12:24:59;;;;;;;1.35;1.25;;;20.90;99.90;;;;;;5135031;27;20047;-86
2022/07/23 12:27:26;;;;;;;1.50;1.40;;;20.70;99.90;;;;;;5137444;27;20072;-82
2022/07/23 12:29:52;;;;;;;3.25;1.40;;;20.90;99.90;;;;;;5135677;27;20588;-87
2022/07/23 12:32:27;;;;;;;1.92;1.60;;;21.20;99.90;;;;;;5137054;27;20073;-85
2022/07/23 12:35:07;;;;;;;3.22;1.30;;;21.30;99.90;;;;;;5136624;27;20047;-86
2022/07/23 12:37:36;;;;;;;2.05;1.77;;;21.70;99.90;;;;;;5139384;27;20256;-89
2022/07/23 12:40:33;;;;;;;3.88;1.75;;;21.80;99.90;;;;;;5124518;27;20058;-87
2022/07/23 12:43:05;;;;;;;1.73;1.15;;;21.90;99.90;;;;;;5042326;28;20117;-87
2022/07/23 12:45:46;;;;;;;9.20;1.40;;;22.10;99.90;;;;;;5041974;28;20056;-86
2022/07/23 12:48:28;;;;;;;1.15;1.02;;;21.90;99.90;;;;;;5017274;28;20057;-86
2022/07/23 12:50:59;;;;;;;3.00;1.17;;;21.90;99.90;;;;;;5059819;28;20047;-87
2022/07/23 12:53:40;;;;;;;3.88;1.23;;;22.00;99.90;;;;;;5019628;28;20065;-86
2022/07/23 12:56:13;;;;;;;3.67;1.20;;;21.90;99.90;;;;;;5057092;28;20495;-87
2022/07/23 12:58:54;;;;;;;3.58;1.35;;;22.00;99.90;;;;;;5026262;28;20049;-86
2022/07/23 13:01:20;;;;;;;2.55;1.60;;;22.00;99.90;;;;;;5058066;28;20055;-86
2022/07/23 13:03:59;;;;;;;4.88;1.67;;;22.20;99.90;;;;;;5059150;28;20037;-86
2022/07/23 13:06:25;;;;;;;3.25;1.40;;;22.10;99.90;;;;;;5042706;28;20053;-85
2022/07/23 13:08:52;;;;;;;3.58;1.50;;;22.20;99.90;;;;;;5052581;28;20037;-85
2022/07/23 13:11:18;;;;;;;2.08;1.85;;;22.30;99.90;;;;;;5040849;28;20033;-86
2022/07/23 13:13:43;;;;;;;2.33;1.48;;;22.30;99.90;;;;;;5056503;28;20545;-85
2022/07/23 13:16:09;;;;;;;1.90;1.48;;;22.30;99.90;;;;;;5056295;28;20484;-85
2022/07/23 13:18:35;;;;;;;1.77;1.60;;;22.40;99.90;;;;;;5056534;27;20051;-86
2022/07/23 13:21:01;;;;;;;1.80;1.10;;;22.30;99.90;;;;;;5126683;27;20131;-83
2022/07/23 13:23:27;;;;;;;3.15;1.70;;;22.30;99.90;;;;;;5139295;27;20134;-84
2022/07/23 13:25:53;;;;;;;3.70;1.67;;;22.30;99.90;;;;;;5139644;27;20058;-84
2022/07/23 13:28:20;;;;;;;3.13;1.48;;;22.30;99.90;;;;;;5118878;27;20035;-85
2022/07/23 13:30:49;;;;;;;7.75;1.30;;;22.90;99.90;;;;;;5120948;27;20380;-87
2022/07/23 13:33:18;;;;;;;2.63;1.23;;;22.70;99.90;;;;;;5114658;27;20395;-83
2022/07/23 13:35:46;;;;;;;5.70;1.73;;;22.80;99.90;;;;;;5138955;27;20063;-83
2022/07/23 13:38:12;;;;;;;1.95;0.93;;;22.80;99.90;;;;;;5122257;27;20047;-84
2022/07/23 13:40:42;;;;;;;2.75;1.30;;;22.70;99.90;;;;;;5135882;27;20051;-83
2022/07/23 13:43:12;;;;;;;2.22;1.30;;;22.70;99.90;;;;;;5140846;27;20064;-84
2022/07/23 13:45:39;;;;;;;1.20;1.05;;;22.80;99.90;;;;;;5139458;27;20050;-88
2022/07/23 13:48:06;;;;;;;1.48;1.00;;;23.30;99.90;;;;;;5140524;27;20437;-87
2022/07/23 13:50:32;;;;;;;1.20;1.10;;;23.30;99.90;;;;;;5121545;27;20031;-86
2022/07/23 13:53:02;;;;;;;1.20;1.10;;;23.10;99.90;;;;;;5122308;27;20126;-84
2022/07/23 13:55:27;;;;;;;1.20;1.10;;;23.40;99.90;;;;;;5139520;27;20437;-83
2022/07/23 13:57:53;;;;;;;4.75;1.25;;;23.40;99.90;;;;;;5138824;27;20047;-83
2022/07/23 14:00:19;;;;;;;2.50;1.10;;;23.40;99.90;;;;;;5121412;27;20042;-82
2022/07/23 14:02:44;;;;;;;1.95;1.02;;;23.20;99.90;;;;;;5115992;27;20039;-83
2022/07/23 14:05:11;;;;;;;3.65;1.25;;;23.20;99.90;;;;;;5131235;27;20039;-83